createdAt,value
2019-05-30T00:05:00.000Z,12.0
2019-05-30T00:10:00.000Z,12.0
2019-05-30T00:15:00.000Z,11.9
2019-05-30T00:20:00.000Z,11.9
2019-05-30T00:25:00.000Z,11.8
2019-05-30T00:30:00.000Z,11.6
2019-05-30T00:35:00.000Z,11.6
2019-05-30T00:40:00.000Z,11.5
2019-05-30T00:45:00.000Z,11.4
2019-05-30T00:50:00.000Z,11.3
2019-05-30T00:55:00.000Z,11.3
2019-05-30T01:00:00.000Z,11.2
2019-05-30T01:05:00.000Z,11.2
2019-05-30T01:10:00.000Z,11.2
2019-05-30T01:15:00.000Z,11.2
2019-05-30T01:20:00.000Z,11.2
2019-05-30T01:25:00.000Z,11.2
2019-05-30T01:30:00.000Z,11.2
2019-05-30T01:36:00.000Z,11.2
2019-05-30T01:41:00.000Z,11.2
2019-05-30T01:46:00.000Z,11.2
2019-05-30T01:51:00.000Z,11.2
2019-05-30T01:56:00.000Z,11.2
2019-05-30T02:01:00.000Z,11.2
2019-05-30T02:06:00.000Z,11.3
2019-05-30T02:11:00.000Z,11.3
2019-05-30T02:16:00.000Z,11.3
2019-05-30T02:21:00.000Z,11.3
2019-05-30T02:26:00.000Z,11.4
2019-05-30T02:31:00.000Z,11.4
2019-05-30T02:36:00.000Z,11.5
2019-05-30T02:41:00.000Z,11.5
2019-05-30T02:46:00.000Z,11.6
2019-05-30T02:51:00.000Z,11.6
2019-05-30T02:56:00.000Z,11.6
2019-05-30T03:01:00.000Z,11.7
2019-05-30T03:07:00.000Z,11.7
2019-05-30T03:12:00.000Z,11.7
2019-05-30T03:17:00.000Z,11.7
2019-05-30T03:22:00.000Z,11.6
2019-05-30T03:27:00.000Z,11.6
2019-05-30T03:32:00.000Z,11.6
2019-05-30T03:38:00.000Z,11.5
2019-05-30T03:43:00.000Z,11.5
2019-05-30T03:48:00.000Z,11.4
2019-05-30T03:53:00.000Z,11.4
2019-05-30T03:58:00.000Z,11.4
2019-05-30T04:03:00.000Z,11.3
2019-05-30T04:08:00.000Z,11.3
2019-05-30T04:13:00.000Z,11.3
2019-05-30T04:18:00.000Z,11.3
2019-05-30T04:23:00.000Z,11.3
2019-05-30T04:28:00.000Z,11.3
2019-05-30T04:33:00.000Z,11.3
2019-05-30T04:38:00.000Z,11.3
2019-05-30T04:43:00.000Z,11.3
2019-05-30T04:48:00.000Z,11.2
2019-05-30T04:53:00.000Z,11.2
2019-05-30T04:58:00.000Z,11.2
2019-05-30T05:03:00.000Z,11.2
2019-05-30T05:08:00.000Z,11.2
2019-05-30T05:13:00.000Z,11.3
2019-05-30T05:18:00.000Z,11.2
2019-05-30T05:23:00.000Z,11.3
2019-05-30T05:28:00.000Z,11.3
2019-05-30T05:33:00.000Z,11.3
2019-05-30T05:38:00.000Z,11.3
2019-05-30T05:43:00.000Z,11.3
2019-05-30T05:48:00.000Z,11.4
2019-05-30T05:53:00.000Z,11.5
2019-05-30T05:59:00.000Z,11.6
2019-05-30T06:04:00.000Z,11.8
2019-05-30T06:09:00.000Z,11.9
2019-05-30T06:14:00.000Z,12.0
2019-05-30T06:19:00.000Z,12.1
2019-05-30T06:24:00.000Z,12.2
2019-05-30T06:29:00.000Z,12.3
2019-05-30T06:34:00.000Z,12.5
2019-05-30T06:39:00.000Z,12.6
2019-05-30T06:44:00.000Z,12.7
2019-05-30T06:49:00.000Z,12.8
2019-05-30T06:54:00.000Z,12.9
2019-05-30T06:59:00.000Z,12.9
2019-05-30T07:04:00.000Z,13.0
2019-05-30T07:09:00.000Z,13.0
2019-05-30T07:14:00.000Z,13.0
2019-05-30T07:19:00.000Z,13.0
2019-05-30T07:24:00.000Z,13.0
2019-05-30T07:29:00.000Z,13.0
2019-05-30T07:34:00.000Z,13.0
2019-05-30T07:40:00.000Z,13.3
2019-05-30T07:45:00.000Z,13.6
2019-05-30T07:50:00.000Z,13.9
2019-05-30T07:55:00.000Z,14.2
2019-05-30T08:00:00.000Z,14.6
2019-05-30T08:05:00.000Z,14.9
2019-05-30T08:10:00.000Z,15.2
2019-05-30T08:15:00.000Z,15.3
2019-05-30T08:20:00.000Z,15.5
2019-05-30T08:25:00.000Z,15.7
2019-05-30T08:30:00.000Z,15.8
2019-05-30T08:35:00.000Z,15.9
2019-05-30T08:40:00.000Z,15.9
2019-05-30T08:45:00.000Z,15.9
2019-05-30T08:50:00.000Z,15.8
2019-05-30T08:55:00.000Z,15.8
2019-05-30T09:00:00.000Z,15.8
2019-05-30T09:05:00.000Z,15.8
2019-05-30T09:11:00.000Z,15.9
2019-05-30T09:16:00.000Z,15.8
2019-05-30T09:21:00.000Z,15.8
2019-05-30T09:26:00.000Z,15.8
2019-05-30T09:31:00.000Z,15.9
2019-05-30T09:36:00.000Z,15.9
2019-05-30T09:41:00.000Z,15.9
2019-05-30T09:46:00.000Z,15.9
2019-05-30T09:51:00.000Z,15.9
2019-05-30T09:56:00.000Z,15.9
2019-05-30T10:01:00.000Z,15.8
2019-05-30T10:06:00.000Z,15.8
2019-05-30T10:11:00.000Z,15.8
2019-05-30T10:16:00.000Z,15.9
2019-05-30T10:21:00.000Z,16.1
2019-05-30T10:26:00.000Z,16.3
2019-05-30T10:31:00.000Z,16.6
2019-05-30T10:36:00.000Z,16.6
2019-05-30T10:41:00.000Z,16.7
2019-05-30T10:46:00.000Z,16.6
2019-05-30T10:51:00.000Z,16.6
2019-05-30T10:56:00.000Z,16.6
2019-05-30T11:02:00.000Z,16.5
2019-05-30T11:07:00.000Z,16.5
2019-05-30T11:12:00.000Z,16.5
2019-05-30T11:17:00.000Z,16.4
2019-05-30T11:22:00.000Z,16.4
2019-05-30T11:27:00.000Z,16.4
2019-05-30T11:32:00.000Z,16.5
2019-05-30T11:37:00.000Z,16.7
2019-05-30T11:42:00.000Z,16.7
2019-05-30T11:47:00.000Z,16.8
2019-05-30T11:52:00.000Z,16.9
2019-05-30T11:57:00.000Z,17.0
2019-05-30T12:02:00.000Z,17.1
2019-05-30T12:07:00.000Z,17.3
2019-05-30T12:12:00.000Z,17.4
2019-05-30T12:17:00.000Z,17.5
2019-05-30T12:22:00.000Z,17.6
2019-05-30T12:27:00.000Z,17.6
2019-05-30T12:32:00.000Z,17.5
2019-05-30T12:37:00.000Z,17.4
2019-05-30T12:43:00.000Z,17.3
2019-05-30T12:48:00.000Z,17.2
2019-05-30T12:53:00.000Z,17.2
2019-05-30T12:58:00.000Z,17.2
2019-05-30T13:03:00.000Z,17.1
2019-05-30T13:08:00.000Z,17.0
2019-05-30T13:13:00.000Z,17.0
2019-05-30T13:18:00.000Z,16.9
2019-05-30T13:23:00.000Z,16.9
2019-05-30T13:28:00.000Z,16.8
2019-05-30T13:33:00.000Z,16.8
2019-05-30T13:38:00.000Z,16.7
2019-05-30T13:43:00.000Z,16.7
2019-05-30T13:48:00.000Z,16.8
2019-05-30T13:53:00.000Z,17.1
2019-05-30T13:58:00.000Z,17.4
2019-05-30T14:03:00.000Z,17.5
2019-05-30T14:08:00.000Z,17.5
2019-05-30T14:13:00.000Z,17.3
2019-05-30T14:18:00.000Z,17.2
2019-05-30T14:23:00.000Z,16.9
2019-05-30T14:28:00.000Z,16.7
2019-05-30T14:33:00.000Z,16.5
2019-05-30T14:38:00.000Z,16.4
2019-05-30T14:43:00.000Z,16.3
2019-05-30T14:49:00.000Z,16.1
2019-05-30T14:54:00.000Z,16.1
2019-05-30T14:59:00.000Z,16.0
2019-05-30T15:04:00.000Z,16.0
2019-05-30T15:09:00.000Z,16.1
2019-05-30T15:14:00.000Z,16.2
2019-05-30T15:19:00.000Z,16.2
2019-05-30T15:24:00.000Z,16.2
2019-05-30T15:29:00.000Z,16.2
2019-05-30T15:34:00.000Z,16.2
2019-05-30T15:39:00.000Z,16.2
2019-05-30T15:44:00.000Z,16.2
2019-05-30T15:49:00.000Z,16.3
2019-05-30T15:54:00.000Z,16.3
2019-05-30T15:59:00.000Z,16.4
2019-05-30T16:04:00.000Z,16.3
2019-05-30T16:09:00.000Z,16.2
2019-05-30T16:14:00.000Z,16.1
2019-05-30T16:19:00.000Z,16.1
2019-05-30T16:24:00.000Z,16.0
2019-05-30T16:29:00.000Z,15.9
2019-05-30T16:34:00.000Z,15.8
2019-05-30T16:39:00.000Z,15.8
2019-05-30T16:45:00.000Z,15.7
2019-05-30T16:50:00.000Z,15.7
2019-05-30T16:55:00.000Z,15.6
2019-05-30T17:00:00.000Z,15.5
2019-05-30T17:05:00.000Z,15.5
2019-05-30T17:10:00.000Z,15.4
2019-05-30T17:15:00.000Z,15.5
2019-05-30T17:20:00.000Z,15.4
2019-05-30T17:25:00.000Z,15.4
2019-05-30T17:30:00.000Z,15.4
2019-05-30T17:35:00.000Z,15.4
2019-05-30T17:40:00.000Z,15.4
2019-05-30T17:45:00.000Z,15.4
2019-05-30T17:50:00.000Z,15.3
2019-05-30T17:55:00.000Z,15.3
2019-05-30T18:00:00.000Z,15.3
2019-05-30T18:05:00.000Z,15.2
2019-05-30T18:10:00.000Z,15.2
2019-05-30T18:15:00.000Z,15.2
2019-05-30T18:20:00.000Z,15.2
2019-05-30T18:25:00.000Z,15.1
2019-05-30T18:30:00.000Z,15.1
2019-05-30T18:35:00.000Z,15.1
2019-05-30T18:40:00.000Z,15.1
2019-05-30T18:46:00.000Z,15.0
2019-05-30T18:51:00.000Z,15.0
2019-05-30T18:56:00.000Z,15.0
2019-05-30T19:01:00.000Z,14.9
2019-05-30T19:06:00.000Z,14.8
2019-05-30T19:11:00.000Z,14.8
2019-05-30T19:16:00.000Z,14.8
2019-05-30T19:21:00.000Z,14.8
2019-05-30T19:26:00.000Z,14.7
2019-05-30T19:31:00.000Z,14.7
2019-05-30T19:36:00.000Z,14.7
2019-05-30T19:41:00.000Z,14.7
2019-05-30T19:46:00.000Z,14.7
2019-05-30T19:51:00.000Z,14.7
2019-05-30T19:56:00.000Z,14.7
2019-05-30T20:02:00.000Z,14.7
2019-05-30T20:07:00.000Z,14.6
2019-05-30T20:12:00.000Z,14.6
2019-05-30T20:17:00.000Z,14.6
2019-05-30T20:22:00.000Z,14.6
2019-05-30T20:27:00.000Z,14.6
2019-05-30T20:32:00.000Z,14.5
2019-05-30T20:37:00.000Z,14.5
2019-05-30T20:42:00.000Z,14.4
2019-05-30T20:47:00.000Z,14.4
2019-05-30T20:52:00.000Z,14.3
2019-05-30T20:57:00.000Z,14.3
2019-05-30T21:02:00.000Z,14.2
2019-05-30T21:07:00.000Z,14.2
2019-05-30T21:12:00.000Z,14.2
2019-05-30T21:17:00.000Z,14.3
2019-05-30T21:22:00.000Z,14.3
2019-05-30T21:27:00.000Z,14.3
2019-05-30T21:32:00.000Z,14.3
2019-05-30T21:37:00.000Z,14.3
2019-05-30T21:42:00.000Z,14.3
2019-05-30T21:48:00.000Z,14.3
2019-05-30T21:53:00.000Z,14.2
2019-05-30T21:58:00.000Z,14.1
2019-05-30T22:03:00.000Z,14.1
2019-05-30T22:08:00.000Z,14.0
2019-05-30T22:13:00.000Z,14.0
2019-05-30T22:18:00.000Z,14.0
2019-05-30T22:23:00.000Z,13.9
2019-05-30T22:28:00.000Z,13.9
2019-05-30T22:33:00.000Z,13.9
2019-05-30T22:38:00.000Z,13.9
2019-05-30T22:43:00.000Z,14.0
2019-05-30T22:48:00.000Z,13.9
2019-05-30T22:53:00.000Z,13.8
2019-05-30T22:58:00.000Z,13.7
2019-05-30T23:03:00.000Z,13.6
2019-05-30T23:08:00.000Z,13.6
2019-05-30T23:13:00.000Z,13.5
2019-05-30T23:18:00.000Z,13.5
2019-05-30T23:23:00.000Z,13.4
2019-05-30T23:28:00.000Z,13.4
2019-05-30T23:33:00.000Z,13.3
2019-05-30T23:38:00.000Z,13.3
2019-05-30T23:43:00.000Z,13.3
2019-05-30T23:49:00.000Z,13.4
2019-05-30T23:54:00.000Z,13.3
2019-05-30T23:59:00.000Z,13.4
